sensor_id;sensor_type;location;lat;lon;timestamp;pressure;altitude;pressure_sealevel;temperature
28905;BMP280;60848;53.884;11.446;2023-05-07T00:00:45;102093.81;;;10.02
28905;BMP280;60848;53.884;11.446;2023-05-07T00:03:15;102102.44;;;10.02
28905;BMP280;60848;53.884;11.446;2023-05-07T00:05:44;102094.88;;;10.01
28905;BMP280;60848;53.884;11.446;2023-05-07T00:08:14;102098.25;;;10.01
28905;BMP280;60848;53.884;11.446;2023-05-07T00:10:43;102097.06;;;9.99
28905;BMP280;60848;53.884;11.446;2023-05-07T00:13:15;102100.09;;;10.01
28905;BMP280;60848;53.884;11.446;2023-05-07T00:15:43;102090.44;;;10.01
28905;BMP280;60848;53.884;11.446;2023-05-07T00:18:13;102089.34;;;10.02
28905;BMP280;60848;53.884;11.446;2023-05-07T00:20:42;102087.50;;;10.03
28905;BMP280;60848;53.884;11.446;2023-05-07T00:23:13;102096.09;;;10.03
28905;BMP280;60848;53.884;11.446;2023-05-07T00:25:44;102090.00;;;9.99
28905;BMP280;60848;53.884;11.446;2023-05-07T00:28:16;102103.06;;;9.99
28905;BMP280;60848;53.884;11.446;2023-05-07T00:30:45;102099.69;;;9.99
28905;BMP280;60848;53.884;11.446;2023-05-07T00:33:15;102103.06;;;9.99
28905;BMP280;60848;53.884;11.446;2023-05-07T00:35:44;102104.47;;;9.97
28905;BMP280;60848;53.884;11.446;2023-05-07T00:38:14;102094.47;;;9.99
28905;BMP280;60848;53.884;11.446;2023-05-07T00:40:45;102093.41;;;10.00
28905;BMP280;60848;53.884;11.446;2023-05-07T00:43:14;102087.50;;;10.03
28905;BMP280;60848;53.884;11.446;2023-05-07T00:45:46;102085.56;;;10.00
28905;BMP280;60848;53.884;11.446;2023-05-07T00:48:18;102090.44;;;10.01
28905;BMP280;60848;53.884;11.446;2023-05-07T00:50:47;102093.81;;;10.02
28905;BMP280;60848;53.884;11.446;2023-05-07T00:53:17;102098.72;;;10.03
28905;BMP280;60848;53.884;11.446;2023-05-07T00:55:46;102095.78;;;10.05
28905;BMP280;60848;53.884;11.446;2023-05-07T00:58:16;102108.84;;;10.05
28905;BMP280;60848;53.884;11.446;2023-05-07T01:00:47;102096.56;;;10.05
28905;BMP280;60848;53.884;11.446;2023-05-07T01:03:16;102102.88;;;10.04
28905;BMP280;60848;53.884;11.446;2023-05-07T01:05:45;102096.09;;;10.03
28905;BMP280;60848;53.884;11.446;2023-05-07T01:08:15;102096.88;;;10.04
28905;BMP280;60848;53.884;11.446;2023-05-07T01:10:44;102095.22;;;9.99
28905;BMP280;60848;53.884;11.446;2023-05-07T01:13:14;102095.22;;;9.99
28905;BMP280;60848;53.884;11.446;2023-05-07T01:15:47;102098.50;;;9.96
28905;BMP280;60848;53.884;11.446;2023-05-07T01:18:17;102096.94;;;9.95
28905;BMP280;60848;53.884;11.446;2023-05-07T01:20:49;102097.25;;;9.94
28905;BMP280;60848;53.884;11.446;2023-05-07T01:23:20;102093.56;;;9.95
28905;BMP280;60848;53.884;11.446;2023-05-07T01:25:52;102092.50;;;9.96
28905;BMP280;60848;53.884;11.446;2023-05-07T01:28:25;102093.25;;;9.96
28905;BMP280;60848;53.884;11.446;2023-05-07T01:31:00;102090.66;;;9.96
28905;BMP280;60848;53.884;11.446;2023-05-07T01:33:32;102084.31;;;9.97
28905;BMP280;60848;53.884;11.446;2023-05-07T01:36:01;102079.09;;;9.97
28905;BMP280;60848;53.884;11.446;2023-05-07T01:38:36;102083.25;;;9.98
28905;BMP280;60848;53.884;11.446;2023-05-07T01:41:05;102082.94;;;10.00
28905;BMP280;60848;53.884;11.446;2023-05-07T01:43:34;102076.94;;;9.99
28905;BMP280;60848;53.884;11.446;2023-05-07T01:46:03;102080.31;;;10.00
28905;BMP280;60848;53.884;11.446;2023-05-07T01:48:33;102085.09;;;9.98
28905;BMP280;60848;53.884;11.446;2023-05-07T01:51:02;102076.16;;;9.99
28905;BMP280;60848;53.884;11.446;2023-05-07T01:53:39;102085.56;;;10.00
28905;BMP280;60848;53.884;11.446;2023-05-07T01:56:09;102090.44;;;10.01
28905;BMP280;60848;53.884;11.446;2023-05-07T01:58:41;102088.25;;;10.03
28905;BMP280;60848;53.884;11.446;2023-05-07T02:01:13;102086.94;;;9.97
28905;BMP280;60848;53.884;11.446;2023-05-07T02:03:43;102084.78;;;9.99
28905;BMP280;60848;53.884;11.446;2023-05-07T02:06:19;102084.13;;;10.02
28905;BMP280;60848;53.884;11.446;2023-05-07T02:08:54;102083.25;;;9.98
28905;BMP280;60848;53.884;11.446;2023-05-07T02:11:22;102086.41;;;10.04
28905;BMP280;60848;53.884;11.446;2023-05-07T02:13:53;102084.13;;;10.02
28905;BMP280;60848;53.884;11.446;2023-05-07T02:16:22;102084.88;;;10.03
28905;BMP280;60848;53.884;11.446;2023-05-07T02:18:52;102093.50;;;10.03
28905;BMP280;60848;53.884;11.446;2023-05-07T02:21:20;102100.56;;;10.03
28905;BMP280;60848;53.884;11.446;2023-05-07T02:23:51;102101.00;;;10.05
28905;BMP280;60848;53.884;11.446;2023-05-07T02:26:21;102092.44;;;10.04
28905;BMP280;60848;53.884;11.446;2023-05-07T02:28:51;102097.94;;;10.03
28905;BMP280;60848;53.884;11.446;2023-05-07T02:31:20;102096.88;;;10.04
28905;BMP280;60848;53.884;11.446;2023-05-07T02:33:50;102097.19;;;10.02
28905;BMP280;60848;53.884;11.446;2023-05-07T02:36:19;102096.09;;;10.03
28905;BMP280;60848;53.884;11.446;2023-05-07T02:39:09;102087.50;;;10.03
28905;BMP280;60848;53.884;11.446;2023-05-07T02:41:40;102096.09;;;10.03
28905;BMP280;60848;53.884;11.446;2023-05-07T02:44:09;102092.72;;;10.03
28905;BMP280;60848;53.884;11.446;2023-05-07T02:46:39;102094.25;;;10.04
28905;BMP280;60848;53.884;11.446;2023-05-07T02:49:11;102098.72;;;10.03
28905;BMP280;60848;53.884;11.446;2023-05-07T02:51:40;102105.78;;;10.03
28905;BMP280;60848;53.884;11.446;2023-05-07T02:54:16;102100.88;;;10.01
28905;BMP280;60848;53.884;11.446;2023-05-07T02:56:47;102108.28;;;9.99
28905;BMP280;60848;53.884;11.446;2023-05-07T02:59:16;102113.53;;;9.99
28905;BMP280;60848;53.884;11.446;2023-05-07T03:01:45;102110.56;;;10.01
28905;BMP280;60848;53.884;11.446;2023-05-07T03:04:15;102101.66;;;10.02
28905;BMP280;60848;53.884;11.446;2023-05-07T03:06:44;102109.50;;;10.02
28905;BMP280;60848;53.884;11.446;2023-05-07T03:09:14;102100.88;;;10.01
28905;BMP280;60848;53.884;11.446;2023-05-07T03:11:47;102106.09;;;10.01
28905;BMP280;60848;53.884;11.446;2023-05-07T03:14:16;102115.38;;;9.99
28905;BMP280;60848;53.884;11.446;2023-05-07T03:16:48;102116.78;;;9.96
28905;BMP280;60848;53.884;11.446;2023-05-07T03:19:18;102116.31;;;9.94
28905;BMP280;60848;53.884;11.446;2023-05-07T03:21:47;102111.84;;;9.95
28905;BMP280;60848;53.884;11.446;2023-05-07T03:24:17;102113.72;;;9.94
28905;BMP280;60848;53.884;11.446;2023-05-07T03:26:47;102116.97;;;9.91
28905;BMP280;60848;53.884;11.446;2023-05-07T03:29:18;102105.41;;;9.92
28905;BMP280;60848;53.884;11.446;2023-05-07T03:31:46;102107.72;;;9.94
28905;BMP280;60848;53.884;11.446;2023-05-07T03:34:16;102112.16;;;9.93
28905;BMP280;60848;53.884;11.446;2023-05-07T03:36:52;102111.41;;;9.93
28905;BMP280;60848;53.884;11.446;2023-05-07T03:39:23;102106.16;;;9.93
28905;BMP280;60848;53.884;11.446;2023-05-07T03:41:53;102109.88;;;9.92
28905;BMP280;60848;53.884;11.446;2023-05-07T03:44:23;102112.94;;;9.94
28905;BMP280;60848;53.884;11.446;2023-05-07T03:46:52;102118.94;;;9.94
28905;BMP280;60848;53.884;11.446;2023-05-07T03:49:22;102112.16;;;9.93
28905;BMP280;60848;53.884;11.446;2023-05-07T03:51:51;102111.84;;;9.95
28905;BMP280;60848;53.884;11.446;2023-05-07T03:54:22;102122.00;;;9.96
28905;BMP280;60848;53.884;11.446;2023-05-07T03:56:50;102129.06;;;9.96
28905;BMP280;60848;53.884;11.446;2023-05-07T03:59:24;102116.31;;;9.94
28905;BMP280;60848;53.884;11.446;2023-05-07T04:01:54;102116.50;;;9.89
28905;BMP280;60848;53.884;11.446;2023-05-07T04:04:25;102124.69;;;9.88
28905;BMP280;60848;53.884;11.446;2023-05-07T04:06:57;102124.34;;;9.89
28905;BMP280;60848;53.884;11.446;2023-05-07T04:09:29;102120.69;;;9.90
28905;BMP280;60848;53.884;11.446;2023-05-07T04:11:58;102119.22;;;9.93
28905;BMP280;60848;53.884;11.446;2023-05-07T04:14:31;102124.91;;;9.95
28905;BMP280;60848;53.884;11.446;2023-05-07T04:17:01;102121.22;;;9.96
28905;BMP280;60848;53.884;11.446;2023-05-07T04:19:33;102119.41;;;9.96
28905;BMP280;60848;53.884;11.446;2023-05-07T04:22:04;102127.22;;;9.96
28905;BMP280;60848;53.884;11.446;2023-05-07T04:24:36;102131.38;;;9.97
28905;BMP280;60848;53.884;11.446;2023-05-07T04:27:05;102138.44;;;9.97
28905;BMP280;60848;53.884;11.446;2023-05-07T04:29:35;102129.53;;;9.98
28905;BMP280;60848;53.884;11.446;2023-05-07T04:32:05;102135.81;;;9.97
28905;BMP280;60848;53.884;11.446;2023-05-07T04:34:33;102137.97;;;9.95
28905;BMP280;60848;53.884;11.446;2023-05-07T04:37:03;102147.69;;;9.94
28905;BMP280;60848;53.884;11.446;2023-05-07T04:39:34;102141.38;;;9.95
28905;BMP280;60848;53.884;11.446;2023-05-07T04:42:05;102152.28;;;9.97
28905;BMP280;60848;53.884;11.446;2023-05-07T04:44:36;102147.94;;;10.01
28905;BMP280;60848;53.884;11.446;2023-05-07T04:47:06;102152.84;;;10.03
28905;BMP280;60848;53.884;11.446;2023-05-07T04:49:37;102145.75;;;10.03
28905;BMP280;60848;53.884;11.446;2023-05-07T04:52:09;102147.59;;;10.03
28905;BMP280;60848;53.884;11.446;2023-05-07T04:54:38;102154.69;;;10.02
28905;BMP280;60848;53.884;11.446;2023-05-07T04:57:08;102155.44;;;10.03
28905;BMP280;60848;53.884;11.446;2023-05-07T04:59:38;102146.09;;;10.02
28905;BMP280;60848;53.884;11.446;2023-05-07T05:02:08;102157.78;;;10.04
28905;BMP280;60848;53.884;11.446;2023-05-07T05:04:37;102155.16;;;10.04
28905;BMP280;60848;53.884;11.446;2023-05-07T05:07:07;102158.06;;;10.03
28905;BMP280;60848;53.884;11.446;2023-05-07T05:09:36;102165.28;;;10.06
28905;BMP280;60848;53.884;11.446;2023-05-07T05:12:05;102165.38;;;10.09
28905;BMP280;60848;53.884;11.446;2023-05-07T05:14:38;102169.38;;;10.15
28905;BMP280;60848;53.884;11.446;2023-05-07T05:17:08;102170.25;;;10.19
28905;BMP280;60848;53.884;11.446;2023-05-07T05:19:37;102158.06;;;10.23
28905;BMP280;60848;53.884;11.446;2023-05-07T05:22:07;102161.88;;;10.26
28905;BMP280;60848;53.884;11.446;2023-05-07T05:24:36;102163.56;;;10.30
28905;BMP280;60848;53.884;11.446;2023-05-07T05:27:09;102172.22;;;10.43
28905;BMP280;60848;53.884;11.446;2023-05-07T05:29:41;102177.25;;;10.48
28905;BMP280;60848;53.884;11.446;2023-05-07T05:32:11;102165.28;;;10.47
28905;BMP280;60848;53.884;11.446;2023-05-07T05:34:40;102168.56;;;10.56
28905;BMP280;60848;53.884;11.446;2023-05-07T05:37:10;102184.22;;;10.77
28905;BMP280;60848;53.884;11.446;2023-05-07T05:39:41;102180.94;;;10.92
28905;BMP280;60848;53.884;11.446;2023-05-07T05:42:15;102182.75;;;11.00
28905;BMP280;60848;53.884;11.446;2023-05-07T05:44:45;102193.44;;;11.07
28905;BMP280;60848;53.884;11.446;2023-05-07T05:47:15;102198.22;;;11.05
28905;BMP280;60848;53.884;11.446;2023-05-07T05:49:46;102193.97;;;11.00
28905;BMP280;60848;53.884;11.446;2023-05-07T05:52:16;102194.81;;;10.92
28905;BMP280;60848;53.884;11.446;2023-05-07T05:54:45;102189.81;;;10.87
28905;BMP280;60848;53.884;11.446;2023-05-07T05:57:15;102192.72;;;10.86
28905;BMP280;60848;53.884;11.446;2023-05-07T05:59:46;102192.19;;;10.92
28905;BMP280;60848;53.884;11.446;2023-05-07T06:02:16;102199.75;;;11.06
28905;BMP280;60848;53.884;11.446;2023-05-07T06:04:45;102182.31;;;11.22
28905;BMP280;60848;53.884;11.446;2023-05-07T06:07:19;102207.31;;;11.43
28905;BMP280;60848;53.884;11.446;2023-05-07T06:09:49;102211.13;;;11.70
28905;BMP280;60848;53.884;11.446;2023-05-07T06:12:20;102208.47;;;11.94
28905;BMP280;60848;53.884;11.446;2023-05-07T06:14:50;102213.41;;;12.23
28905;BMP280;60848;53.884;11.446;2023-05-07T06:17:20;102208.13;;;12.35
28905;BMP280;60848;53.884;11.446;2023-05-07T06:19:50;102211.72;;;12.58
28905;BMP280;60848;53.884;11.446;2023-05-07T06:22:20;102214.38;;;12.74
28905;BMP280;60848;53.884;11.446;2023-05-07T06:24:49;102208.03;;;12.75
28905;BMP280;60848;53.884;11.446;2023-05-07T06:27:20;102214.22;;;12.67
28905;BMP280;60848;53.884;11.446;2023-05-07T06:29:52;102215.19;;;12.62
28905;BMP280;60848;53.884;11.446;2023-05-07T06:32:22;102221.38;;;12.54
28905;BMP280;60848;53.884;11.446;2023-05-07T06:34:51;102213.91;;;12.56
28905;BMP280;60848;53.884;11.446;2023-05-07T06:37:21;102201.72;;;12.64
28905;BMP280;60848;53.884;11.446;2023-05-07T06:39:57;102210.50;;;12.83
28905;BMP280;60848;53.884;11.446;2023-05-07T06:42:28;102212.78;;;13.00
28905;BMP280;60848;53.884;11.446;2023-05-07T06:45:07;102209.91;;;13.05
28905;BMP280;60848;53.884;11.446;2023-05-07T06:47:38;102208.16;;;12.94
28905;BMP280;60848;53.884;11.446;2023-05-07T06:50:08;102215.91;;;12.90
28905;BMP280;60848;53.884;11.446;2023-05-07T06:52:38;102217.03;;;12.89
28905;BMP280;60848;53.884;11.446;2023-05-07T06:55:08;102210.41;;;12.95
28905;BMP280;60848;53.884;11.446;2023-05-07T06:57:37;102211.44;;;13.22
28905;BMP280;60848;53.884;11.446;2023-05-07T07:00:09;102222.31;;;13.55
28905;BMP280;60848;53.884;11.446;2023-05-07T07:02:48;102225.53;;;13.64
28905;BMP280;60848;53.884;11.446;2023-05-07T07:05:21;102241.22;;;13.60
28905;BMP280;60848;53.884;11.446;2023-05-07T07:07:51;102212.00;;;13.65
28905;BMP280;60848;53.884;11.446;2023-05-07T07:10:21;102217.25;;;13.65
28905;BMP280;60848;53.884;11.446;2023-05-07T07:12:52;102214.81;;;13.72
28905;BMP280;60848;53.884;11.446;2023-05-07T07:15:24;102223.13;;;13.93
28905;BMP280;60848;53.884;11.446;2023-05-07T07:17:56;102209.47;;;14.07
28905;BMP280;60848;53.884;11.446;2023-05-07T07:20:24;102210.19;;;14.04
28905;BMP280;60848;53.884;11.446;2023-05-07T07:22:56;102217.09;;;14.12
28905;BMP280;60848;53.884;11.446;2023-05-07T07:25:25;102215.09;;;14.25
28905;BMP280;60848;53.884;11.446;2023-05-07T07:27:56;102212.09;;;14.45
28905;BMP280;60848;53.884;11.446;2023-05-07T07:30:28;102227.06;;;14.64
28905;BMP280;60848;53.884;11.446;2023-05-07T07:32:57;102202.84;;;14.77
28905;BMP280;60848;53.884;11.446;2023-05-07T07:35:33;102213.44;;;14.81
28905;BMP280;60848;53.884;11.446;2023-05-07T07:38:05;102234.91;;;14.83
28905;BMP280;60848;53.884;11.446;2023-05-07T07:40:34;102220.44;;;14.73
28905;BMP280;60848;53.884;11.446;2023-05-07T07:43:08;102206.13;;;14.71
28905;BMP280;60848;53.884;11.446;2023-05-07T07:45:41;102225.53;;;14.63
28905;BMP280;60848;53.884;11.446;2023-05-07T07:48:10;102220.91;;;14.56
28905;BMP280;60848;53.884;11.446;2023-05-07T07:50:39;102222.44;;;14.57
28905;BMP280;60848;53.884;11.446;2023-05-07T07:53:15;102215.59;;;14.75
28905;BMP280;60848;53.884;11.446;2023-05-07T07:55:44;102219.22;;;14.90
28905;BMP280;60848;53.884;11.446;2023-05-07T07:58:17;102207.94;;;15.15
28905;BMP280;60848;53.884;11.446;2023-05-07T08:00:47;102215.66;;;15.27
28905;BMP280;60848;53.884;11.446;2023-05-07T08:03:17;102211.94;;;15.32
28905;BMP280;60848;53.884;11.446;2023-05-07T08:05:51;102201.00;;;15.30
28905;BMP280;60848;53.884;11.446;2023-05-07T08:08:20;102210.56;;;15.41
28905;BMP280;60848;53.884;11.446;2023-05-07T08:10:53;102200.56;;;15.54
28905;BMP280;60848;53.884;11.446;2023-05-07T08:13:28;102199.25;;;15.70
28905;BMP280;60848;53.884;11.446;2023-05-07T08:15:58;102211.06;;;15.83
28905;BMP280;60848;53.884;11.446;2023-05-07T08:18:33;102187.75;;;15.89
28905;BMP280;60848;53.884;11.446;2023-05-07T08:21:05;102212.38;;;15.96
28905;BMP280;60848;53.884;11.446;2023-05-07T08:23:35;102209.75;;;16.00
28905;BMP280;60848;53.884;11.446;2023-05-07T08:26:04;102209.22;;;16.21
28905;BMP280;60848;53.884;11.446;2023-05-07T08:28:36;102218.50;;;16.44
28905;BMP280;60848;53.884;11.446;2023-05-07T08:31:07;102225.03;;;16.61
28905;BMP280;60848;53.884;11.446;2023-05-07T08:33:39;102203.19;;;16.67
28905;BMP280;60848;53.884;11.446;2023-05-07T08:36:09;102213.13;;;16.84
28905;BMP280;60848;53.884;11.446;2023-05-07T08:38:39;102192.44;;;16.93
28905;BMP280;60848;53.884;11.446;2023-05-07T08:41:10;102194.38;;;17.03
28905;BMP280;60848;53.884;11.446;2023-05-07T08:43:42;102191.38;;;17.08
28905;BMP280;60848;53.884;11.446;2023-05-07T08:46:18;102192.97;;;17.23
28905;BMP280;60848;53.884;11.446;2023-05-07T08:48:51;102208.91;;;17.37
28905;BMP280;60848;53.884;11.446;2023-05-07T08:51:21;102196.84;;;17.43
28905;BMP280;60848;53.884;11.446;2023-05-07T08:53:51;102196.84;;;17.40
28905;BMP280;60848;53.884;11.446;2023-05-07T08:56:24;102206.25;;;17.37
28905;BMP280;60848;53.884;11.446;2023-05-07T08:58:54;102207.78;;;17.35
28905;BMP280;60848;53.884;11.446;2023-05-07T09:01:30;102194.53;;;17.35
28905;BMP280;60848;53.884;11.446;2023-05-07T09:04:00;102190.34;;;17.30
28905;BMP280;60848;53.884;11.446;2023-05-07T09:06:29;102203.69;;;17.44
28905;BMP280;60848;53.884;11.446;2023-05-07T09:09:00;102192.72;;;17.53
28905;BMP280;60848;53.884;11.446;2023-05-07T09:11:35;102188.66;;;17.76
28905;BMP280;60848;53.884;11.446;2023-05-07T09:14:04;102189.44;;;18.01
28905;BMP280;60848;53.884;11.446;2023-05-07T09:16:40;102180.00;;;18.11
28905;BMP280;60848;53.884;11.446;2023-05-07T09:19:10;102186.44;;;18.20
28905;BMP280;60848;53.884;11.446;2023-05-07T09:21:44;102186.44;;;18.38
28905;BMP280;60848;53.884;11.446;2023-05-07T09:24:15;102181.50;;;18.47
28905;BMP280;60848;53.884;11.446;2023-05-07T09:26:47;102182.66;;;18.42
28905;BMP280;60848;53.884;11.446;2023-05-07T09:29:19;102172.00;;;18.49
28905;BMP280;60848;53.884;11.446;2023-05-07T09:31:50;102186.78;;;18.54
28905;BMP280;60848;53.884;11.446;2023-05-07T09:34:19;102183.00;;;18.51
28905;BMP280;60848;53.884;11.446;2023-05-07T09:36:48;102201.16;;;18.46
28905;BMP280;60848;53.884;11.446;2023-05-07T09:39:18;102190.56;;;18.35
28905;BMP280;60848;53.884;11.446;2023-05-07T09:41:50;102176.97;;;18.33
28905;BMP280;60848;53.884;11.446;2023-05-07T09:44:31;102204.59;;;18.43
28905;BMP280;60848;53.884;11.446;2023-05-07T09:47:04;102190.97;;;18.37
28905;BMP280;60848;53.884;11.446;2023-05-07T09:49:40;102184.91;;;18.33
28905;BMP280;60848;53.884;11.446;2023-05-07T09:52:11;102195.09;;;18.52
28905;BMP280;60848;53.884;11.446;2023-05-07T09:54:49;102187.16;;;18.70
28905;BMP280;60848;53.884;11.446;2023-05-07T09:57:21;102196.94;;;18.80
28905;BMP280;60848;53.884;11.446;2023-05-07T09:59:57;102200.75;;;18.83
28905;BMP280;60848;53.884;11.446;2023-05-07T10:02:31;102178.00;;;18.92
28905;BMP280;60848;53.884;11.446;2023-05-07T10:05:03;102199.63;;;18.84
28905;BMP280;60848;53.884;11.446;2023-05-07T10:07:33;102190.19;;;18.65
28905;BMP280;60848;53.884;11.446;2023-05-07T10:10:07;102196.25;;;18.51
28905;BMP280;60848;53.884;11.446;2023-05-07T10:12:40;102197.38;;;18.50
28905;BMP280;60848;53.884;11.446;2023-05-07T10:15:16;102190.94;;;18.69
28905;BMP280;60848;53.884;11.446;2023-05-07T10:17:52;102192.44;;;18.66
28905;BMP280;60848;53.884;11.446;2023-05-07T10:20:25;102176.91;;;18.72
28905;BMP280;60848;53.884;11.446;2023-05-07T10:22:59;102185.63;;;18.73
28905;BMP280;60848;53.884;11.446;2023-05-07T10:25:36;102182.97;;;18.62
28905;BMP280;60848;53.884;11.446;2023-05-07T10:28:13;102190.94;;;18.51
28905;BMP280;60848;53.884;11.446;2023-05-07T10:30:58;102207.22;;;18.53
28905;BMP280;60848;53.884;11.446;2023-05-07T10:33:39;102195.44;;;18.72
28905;BMP280;60848;53.884;11.446;2023-05-07T10:36:10;102198.47;;;18.85
28905;BMP280;60848;53.884;11.446;2023-05-07T10:38:40;102188.16;;;19.11
28905;BMP280;60848;53.884;11.446;2023-05-07T10:41:10;102192.31;;;19.19
28905;BMP280;60848;53.884;11.446;2023-05-07T10:43:45;102187.44;;;19.00
28905;BMP280;60848;53.884;11.446;2023-05-07T10:46:23;102203.03;;;18.66
28905;BMP280;60848;53.884;11.446;2023-05-07T10:49:12;102197.41;;;18.47
28905;BMP280;60848;53.884;11.446;2023-05-07T10:52:11;102197.00;;;18.66
28905;BMP280;60848;53.884;11.446;2023-05-07T10:55:20;102193.16;;;18.95
28905;BMP280;60848;53.884;11.446;2023-05-07T10:58:25;102190.03;;;19.18
28905;BMP280;60848;53.884;11.446;2023-05-07T11:01:50;102192.56;;;19.39
28905;BMP280;60848;53.884;11.446;2023-05-07T11:04:38;102185.00;;;19.44
28905;BMP280;60848;53.884;11.446;2023-05-07T11:07:29;102175.16;;;19.41
28905;BMP280;60848;53.884;11.446;2023-05-07T11:10:06;102182.78;;;19.25
28905;BMP280;60848;53.884;11.446;2023-05-07T11:13:01;102196.13;;;19.08
28905;BMP280;60848;53.884;11.446;2023-05-07T11:15:45;102196.53;;;18.99
28905;BMP280;60848;53.884;11.446;2023-05-07T11:18:47;102181.81;;;18.88
28905;BMP280;60848;53.884;11.446;2023-05-07T11:21:36;102168.56;;;18.77
28905;BMP280;60848;53.884;11.446;2023-05-07T11:24:15;102190.91;;;18.73
28905;BMP280;60848;53.884;11.446;2023-05-07T11:29:25;102176.50;;;18.81
28905;BMP280;60848;53.884;11.446;2023-05-07T11:32:04;102181.41;;;18.89
28905;BMP280;60848;53.884;11.446;2023-05-07T11:34:40;102180.25;;;18.90
28905;BMP280;60848;53.884;11.446;2023-05-07T11:37:11;102190.50;;;18.88
28905;BMP280;60848;53.884;11.446;2023-05-07T11:40:07;102175.00;;;18.83
28905;BMP280;60848;53.884;11.446;2023-05-07T11:42:40;102164.00;;;18.88
28905;BMP280;60848;53.884;11.446;2023-05-07T11:45:11;102184.78;;;19.00
28905;BMP280;60848;53.884;11.446;2023-05-07T11:47:42;102174.19;;;19.04
28905;BMP280;60848;53.884;11.446;2023-05-07T11:50:12;102173.44;;;19.00
28905;BMP280;60848;53.884;11.446;2023-05-07T11:52:51;102170.03;;;18.92
28905;BMP280;60848;53.884;11.446;2023-05-07T11:55:24;102175.78;;;18.84
28905;BMP280;60848;53.884;11.446;2023-05-07T11:57:54;102184.88;;;18.68
28905;BMP280;60848;53.884;11.446;2023-05-07T12:00:23;102184.09;;;18.57
28905;BMP280;60848;53.884;11.446;2023-05-07T12:02:52;102172.03;;;18.53
28905;BMP280;60848;53.884;11.446;2023-05-07T12:05:22;102170.88;;;18.54
28905;BMP280;60848;53.884;11.446;2023-05-07T12:07:57;102177.31;;;18.56
28905;BMP280;60848;53.884;11.446;2023-05-07T12:10:27;102184.13;;;18.75
28905;BMP280;60848;53.884;11.446;2023-05-07T12:12:56;102182.53;;;18.95
28905;BMP280;60848;53.884;11.446;2023-05-07T12:15:26;102157.47;;;19.07
28905;BMP280;60848;53.884;11.446;2023-05-07T12:17:56;102174.13;;;19.14
28905;BMP280;60848;53.884;11.446;2023-05-07T12:20:25;102178.63;;;19.21
28905;BMP280;60848;53.884;11.446;2023-05-07T12:22:56;102176.75;;;19.28
28905;BMP280;60848;53.884;11.446;2023-05-07T12:25:30;102181.22;;;19.35
28905;BMP280;60848;53.884;11.446;2023-05-07T12:28:00;102166.78;;;19.43
28905;BMP280;60848;53.884;11.446;2023-05-07T12:30:30;102168.69;;;19.42
28905;BMP280;60848;53.884;11.446;2023-05-07T12:33:02;102183.88;;;19.35
28905;BMP280;60848;53.884;11.446;2023-05-07T12:35:40;102165.38;;;19.28
28905;BMP280;60848;53.884;11.446;2023-05-07T12:38:13;102155.91;;;19.23
28905;BMP280;60848;53.884;11.446;2023-05-07T12:40:44;102161.91;;;19.34
28905;BMP280;60848;53.884;11.446;2023-05-07T12:43:17;102158.81;;;19.43
28905;BMP280;60848;53.884;11.446;2023-05-07T12:45:49;102169.00;;;19.51
28905;BMP280;60848;53.884;11.446;2023-05-07T12:48:20;102160.28;;;19.54
28905;BMP280;60848;53.884;11.446;2023-05-07T12:50:53;102164.72;;;19.68
28905;BMP280;60848;53.884;11.446;2023-05-07T12:53:25;102155.59;;;19.76
28905;BMP280;60848;53.884;11.446;2023-05-07T12:55:58;102158.97;;;19.76
28905;BMP280;60848;53.884;11.446;2023-05-07T12:58:29;102170.72;;;19.79
28905;BMP280;60848;53.884;11.446;2023-05-07T13:01:01;102160.81;;;19.83
28905;BMP280;60848;53.884;11.446;2023-05-07T13:03:34;102161.56;;;19.87
28905;BMP280;60848;53.884;11.446;2023-05-07T13:06:09;102156.59;;;19.92
28905;BMP280;60848;53.884;11.446;2023-05-07T13:08:41;102153.94;;;19.92
28905;BMP280;60848;53.884;11.446;2023-05-07T13:11:13;102169.44;;;19.97
28905;BMP280;60848;53.884;11.446;2023-05-07T13:13:44;102174.41;;;19.95
28905;BMP280;60848;53.884;11.446;2023-05-07T13:16:16;102160.38;;;19.95
28905;BMP280;60848;53.884;11.446;2023-05-07T13:18:49;102171.50;;;19.79
28905;BMP280;60848;53.884;11.446;2023-05-07T13:21:21;102157.97;;;19.60
28905;BMP280;60848;53.884;11.446;2023-05-07T13:23:52;102153.06;;;19.51
28905;BMP280;60848;53.884;11.446;2023-05-07T13:26:22;102148.19;;;19.50
28905;BMP280;60848;53.884;11.446;2023-05-07T13:28:55;102145.84;;;19.59
28905;BMP280;60848;53.884;11.446;2023-05-07T13:31:28;102148.44;;;19.66
28905;BMP280;60848;53.884;11.446;2023-05-07T13:34:00;102143.09;;;19.69
28905;BMP280;60848;53.884;11.446;2023-05-07T13:36:32;102160.22;;;19.61
28905;BMP280;60848;53.884;11.446;2023-05-07T13:39:05;102156.84;;;19.57
28905;BMP280;60848;53.884;11.446;2023-05-07T13:41:35;102146.25;;;19.54
28905;BMP280;60848;53.884;11.446;2023-05-07T13:44:04;102159.53;;;19.54
28905;BMP280;60848;53.884;11.446;2023-05-07T13:46:34;102145.06;;;19.55
28905;BMP280;60848;53.884;11.446;2023-05-07T13:49:03;102148.91;;;19.54
28905;BMP280;60848;53.884;11.446;2023-05-07T13:51:36;102145.84;;;19.59
28905;BMP280;60848;53.884;11.446;2023-05-07T13:54:09;102167.84;;;19.56
28905;BMP280;60848;53.884;11.446;2023-05-07T13:56:39;102154.97;;;19.51
28905;BMP280;60848;53.884;11.446;2023-05-07T13:59:08;102133.03;;;19.43
28905;BMP280;60848;53.884;11.446;2023-05-07T14:01:38;102152.75;;;19.46
28905;BMP280;60848;53.884;11.446;2023-05-07T14:04:09;102138.00;;;19.41
28905;BMP280;60848;53.884;11.446;2023-05-07T14:06:39;102137.66;;;19.36
28905;BMP280;60848;53.884;11.446;2023-05-07T14:09:09;102135.78;;;19.26
28905;BMP280;60848;53.884;11.446;2023-05-07T14:11:41;102149.03;;;19.29
28905;BMP280;60848;53.884;11.446;2023-05-07T14:14:10;102146.03;;;19.27
28905;BMP280;60848;53.884;11.446;2023-05-07T14:16:40;102139.19;;;19.26